Time;durP1;ratioP1;P1;durP2;ratioP2;P2;SDS_P1;SDS_P2;PMS_P1;PMS_P2;Temp;Humidity;BMP_temperature;BMP_pressure;BME280_temperature;BME280_humidity;BME280_pressure;Samples;Min_cycle;Max_cycle;Signal;HPM_P1;HPM_P2
2021/04/05 00:01:37;;;;;;;35.53;26.80;;;5.50;99.90;;;;;;5094240;28;20182;-65
2021/04/05 00:04:04;;;;;;;36.77;27.77;;;5.50;99.90;;;;;;5093919;28;20178;-65
2021/04/05 00:06:29;;;;;;;34.83;26.17;;;5.50;99.90;;;;;;5094766;28;20175;-65
2021/04/05 00:08:55;;;;;;;34.53;24.93;;;5.50;99.90;;;;;;5093470;28;20965;-64
2021/04/05 00:11:21;;;;;;;36.43;26.70;;;5.50;99.90;;;;;;5095027;28;20164;-65
2021/04/05 00:13:47;;;;;;;51.70;27.27;;;5.60;99.90;;;;;;5094916;28;20157;-65
2021/04/05 00:16:21;;;;;;;34.33;26.57;;;5.60;99.90;;;;;;5094928;28;20157;-65
2021/04/05 00:18:47;;;;;;;39.13;26.57;;;5.60;99.90;;;;;;5094159;28;20548;-65
2021/04/05 00:21:15;;;;;;;38.97;26.53;;;5.60;99.90;;;;;;5094658;28;20404;-65
2021/04/05 00:23:41;;;;;;;36.20;25.30;;;5.60;99.90;;;;;;5094736;28;20552;-65
2021/04/05 00:26:07;;;;;;;35.17;25.17;;;5.60;99.90;;;;;;5095002;28;20425;-65
2021/04/05 00:28:34;;;;;;;35.23;25.40;;;5.60;99.90;;;;;;5093280;28;20192;-65
2021/04/05 00:31:00;;;;;;;35.13;24.97;;;5.60;99.90;;;;;;5094963;28;20393;-65
2021/04/05 00:33:26;;;;;;;33.63;24.90;;;5.60;99.90;;;;;;5094500;28;20736;-65
2021/04/05 00:35:51;;;;;;;32.10;24.27;;;5.70;99.90;;;;;;5092185;28;20419;-65
2021/04/05 00:38:17;;;;;;;31.50;25.30;;;5.70;99.90;;;;;;5072969;28;20566;-65
2021/04/05 00:43:22;;;;;;;31.17;24.90;;;5.70;99.90;;;;;;5131302;27;21033;-65
2021/04/05 00:45:49;;;;;;;31.17;25.73;;;5.70;99.90;;;;;;5131500;27;20423;-65
2021/04/05 00:48:15;;;;;;;35.70;26.13;;;5.70;99.90;;;;;;5131360;27;20161;-65
2021/04/05 00:53:24;;;;;;;39.60;27.60;;;5.70;99.90;;;;;;5131236;27;20565;-65
2021/04/05 00:55:50;;;;;;;34.60;25.50;;;5.60;99.90;;;;;;5113017;28;20873;-65
2021/04/05 00:58:17;;;;;;;30.80;23.77;;;5.60;99.90;;;;;;5131280;28;20396;-65
2021/04/05 01:03:23;;;;;;;34.30;24.80;;;5.60;99.90;;;;;;5090792;28;20562;-65
2021/04/05 01:05:52;;;;;;;30.17;23.73;;;5.60;99.90;;;;;;5090535;28;20395;-65
2021/04/05 01:08:18;;;;;;;35.90;25.53;;;5.70;99.90;;;;;;5089737;28;20466;-65
2021/04/05 01:10:45;;;;;;;32.33;24.00;;;5.60;99.90;;;;;;5090360;28;20389;-65
2021/04/05 01:13:10;;;;;;;36.97;24.80;;;5.60;99.90;;;;;;5089405;28;20155;-65
2021/04/05 01:15:36;;;;;;;33.73;23.60;;;5.60;99.90;;;;;;5090186;28;20508;-65
2021/04/05 01:18:04;;;;;;;32.33;24.90;;;5.60;99.90;;;;;;5090240;28;20211;-64
2021/04/05 01:20:29;;;;;;;31.47;23.57;;;5.60;99.90;;;;;;5090250;28;20162;-65
2021/04/05 01:22:56;;;;;;;34.30;24.37;;;5.60;99.90;;;;;;5089945;28;20804;-65
2021/04/05 01:25:22;;;;;;;36.40;24.80;;;5.70;99.90;;;;;;5089371;28;20201;-65
2021/04/05 01:27:48;;;;;;;32.43;25.27;;;5.70;99.90;;;;;;5090301;28;20378;-65
2021/04/05 01:30:34;;;;;;;32.73;24.90;;;5.60;99.90;;;;;;5089984;28;20440;-65
2021/04/05 01:35:43;;;;;;;29.23;24.17;;;5.60;99.90;;;;;;5131401;27;20553;-65
2021/04/05 01:38:11;;;;;;;29.70;24.60;;;5.60;99.90;;;;;;5110828;28;20394;-65
2021/04/05 01:40:39;;;;;;;33.57;23.87;;;5.60;99.90;;;;;;5110805;28;20915;-65
2021/04/05 01:43:05;;;;;;;32.20;24.80;;;5.60;99.90;;;;;;5111574;28;20411;-65
2021/04/05 01:45:32;;;;;;;36.10;24.27;;;5.70;99.90;;;;;;5110615;28;20416;-64
2021/04/05 01:47:58;;;;;;;36.13;25.13;;;5.70;99.90;;;;;;5110784;28;20384;-64
2021/04/05 01:50:24;;;;;;;31.33;24.53;;;5.60;99.90;;;;;;5110517;28;20753;-65
2021/04/05 01:52:50;;;;;;;32.13;23.93;;;5.60;99.90;;;;;;5109361;28;20155;-65
2021/04/05 01:55:15;;;;;;;29.70;23.47;;;5.60;99.90;;;;;;5110478;28;20846;-65
2021/04/05 01:57:42;;;;;;;34.57;25.23;;;5.60;99.90;;;;;;5110553;28;20164;-65
2021/04/05 02:00:11;;;;;;;35.73;24.30;;;5.60;99.90;;;;;;5110955;28;20541;-64
2021/04/05 02:02:37;;;;;;;33.00;24.30;;;5.60;99.90;;;;;;5110382;28;20385;-65
2021/04/05 02:05:06;;;;;;;56.63;26.30;;;5.60;99.90;;;;;;5110336;28;20402;-65
2021/04/05 02:07:35;;;;;;;39.30;26.30;;;5.60;99.90;;;;;;5109031;28;20409;-65
2021/04/05 02:10:01;;;;;;;38.03;26.57;;;5.60;99.90;;;;;;5109002;28;20405;-64
2021/04/05 02:12:27;;;;;;;33.20;24.50;;;5.50;99.90;;;;;;5110484;28;20397;-65
2021/04/05 02:14:53;;;;;;;37.67;26.10;;;5.50;99.90;;;;;;5110038;28;20277;-65
2021/04/05 02:17:19;;;;;;;35.33;27.33;;;5.50;99.90;;;;;;5110897;28;20415;-65
2021/04/05 02:19:45;;;;;;;41.97;27.10;;;5.50;99.90;;;;;;5110435;27;20404;-65
2021/04/05 02:22:11;;;;;;;38.77;27.93;;;5.50;99.90;;;;;;5109953;28;20397;-65
2021/04/05 02:24:40;;;;;;;44.20;28.87;;;5.50;99.90;;;;;;5110069;28;20819;-65
2021/04/05 02:27:06;;;;;;;39.83;25.93;;;5.50;99.90;;;;;;5109986;28;20417;-65
2021/04/05 02:29:32;;;;;;;45.07;29.00;;;5.60;99.90;;;;;;5109884;28;20385;-65
2021/04/05 02:31:57;;;;;;;33.33;26.30;;;5.60;99.90;;;;;;5109936;28;20461;-65
2021/04/05 02:34:24;;;;;;;37.13;28.00;;;5.60;99.90;;;;;;5110342;28;20212;-65
2021/04/05 02:36:49;;;;;;;39.03;30.57;;;5.60;99.90;;;;;;5110063;28;20172;-65
2021/04/05 02:39:15;;;;;;;39.70;26.03;;;5.60;99.90;;;;;;5109796;28;20475;-65
2021/04/05 02:41:43;;;;;;;36.10;27.03;;;5.60;99.90;;;;;;5109732;28;20204;-65
2021/04/05 02:44:09;;;;;;;38.77;28.50;;;5.60;99.90;;;;;;5108390;28;20158;-65
2021/04/05 02:46:37;;;;;;;37.80;26.63;;;5.60;99.90;;;;;;5096917;28;20880;-65
2021/04/05 02:49:06;;;;;;;49.03;28.57;;;5.60;99.90;;;;;;5096356;28;20534;-65
2021/04/05 02:51:33;;;;;;;39.23;27.63;;;5.60;99.90;;;;;;5110513;28;20404;-65
2021/04/05 02:54:00;;;;;;;39.63;28.07;;;5.60;99.90;;;;;;5116222;28;20450;-65
2021/04/05 02:56:27;;;;;;;42.10;28.70;;;5.60;99.90;;;;;;5116400;28;20426;-65
2021/04/05 02:58:55;;;;;;;36.20;26.97;;;5.70;99.90;;;;;;5116014;28;20391;-65
2021/04/05 03:01:22;;;;;;;38.33;29.00;;;5.70;99.90;;;;;;5116217;28;20396;-65
2021/04/05 03:03:49;;;;;;;42.00;28.60;;;5.70;99.90;;;;;;5116008;28;20994;-65
2021/04/05 03:06:19;;;;;;;39.07;28.30;;;5.70;99.90;;;;;;5115917;27;20507;-65
2021/04/05 03:08:45;;;;;;;35.00;27.73;;;5.70;99.90;;;;;;5115070;28;20415;-65
2021/04/05 03:11:14;;;;;;;34.13;26.30;;;5.70;99.90;;;;;;5116005;28;20433;-65
2021/04/05 03:13:40;;;;;;;40.60;28.27;;;5.70;99.90;;;;;;5115728;28;20442;-65
2021/04/05 03:16:10;;;;;;;40.57;28.67;;;5.70;99.90;;;;;;5115965;28;20388;-65
2021/04/05 03:18:36;;;;;;;41.37;28.20;;;5.70;99.90;;;;;;5115720;28;20246;-65
2021/04/05 03:21:06;;;;;;;38.13;27.50;;;5.60;99.90;;;;;;5114399;28;20392;-65
2021/04/05 03:23:32;;;;;;;42.30;29.20;;;5.60;99.90;;;;;;5115678;28;20397;-65
2021/04/05 03:25:57;;;;;;;35.87;25.80;;;5.60;99.90;;;;;;5114761;28;20927;-65
2021/04/05 03:28:23;;;;;;;33.97;26.67;;;5.70;99.90;;;;;;5115592;28;20808;-65
2021/04/05 03:30:52;;;;;;;40.80;26.70;;;5.70;99.90;;;;;;5115698;28;20211;-65
2021/04/05 03:33:25;;;;;;;35.73;25.80;;;5.80;99.90;;;;;;5114996;28;20173;-65
2021/04/05 03:35:55;;;;;;;31.73;24.70;;;5.90;99.90;;;;;;5114192;28;20392;-65
2021/04/05 03:38:22;;;;;;;42.20;27.10;;;5.90;99.90;;;;;;5095002;28;20414;-66
2021/04/05 03:40:47;;;;;;;30.57;25.03;;;6.00;99.90;;;;;;5095238;28;20478;-65
2021/04/05 03:43:23;;;;;;;34.77;25.23;;;6.10;99.90;;;;;;5095007;28;20413;-65
2021/04/05 03:45:59;;;;;;;35.03;24.93;;;6.10;99.90;;;;;;5094673;28;20685;-65
2021/04/05 03:48:35;;;;;;;33.97;25.67;;;6.10;99.90;;;;;;5094791;28;20394;-65
2021/04/05 03:56:16;;;;;;;32.80;25.07;;;6.20;99.90;;;;;;5111184;27;20505;-65
2021/04/05 03:58:47;;;;;;;37.83;24.17;;;6.30;99.90;;;;;;5102754;28;20846;-65
2021/04/05 04:01:19;;;;;;;37.50;25.50;;;6.30;99.90;;;;;;5090376;28;20421;-65
2021/04/05 04:03:59;;;;;;;30.60;24.20;;;6.30;99.90;;;;;;5090712;28;20393;-65
2021/04/05 04:06:32;;;;;;;29.70;24.00;;;6.40;99.90;;;;;;5090550;28;20444;-65
2021/04/05 04:09:00;;;;;;;34.50;22.07;;;6.40;99.90;;;;;;5090331;28;20384;-65
2021/04/05 04:11:29;;;;;;;30.07;23.00;;;6.40;99.90;;;;;;5090232;28;20523;-65
2021/04/05 04:13:56;;;;;;;27.53;21.60;;;6.50;99.90;;;;;;5090383;28;20431;-65
2021/04/05 04:16:22;;;;;;;30.13;21.27;;;6.50;99.90;;;;;;5090755;28;20786;-65
2021/04/05 04:18:48;;;;;;;37.33;22.60;;;6.50;99.90;;;;;;5090228;28;20385;-65
2021/04/05 04:21:15;;;;;;;27.90;20.90;;;6.50;99.90;;;;;;5090420;28;20405;-65
2021/04/05 04:23:41;;;;;;;25.30;19.95;;;6.60;99.90;;;;;;5090118;28;20404;-65
2021/04/05 04:26:07;;;;;;;29.20;20.50;;;6.60;99.90;;;;;;5089939;28;20153;-65
2021/04/05 04:28:34;;;;;;;30.70;20.60;;;6.60;99.90;;;;;;5089864;28;20469;-65
2021/04/05 04:31:03;;;;;;;31.53;21.57;;;6.60;99.90;;;;;;5089815;28;20432;-65
2021/04/05 04:33:30;;;;;;;31.30;19.70;;;6.60;99.90;;;;;;5090169;28;20423;-65
2021/04/05 04:35:56;;;;;;;34.10;19.70;;;6.60;99.90;;;;;;5091873;28;20471;-65
2021/04/05 04:38:24;;;;;;;28.63;22.20;;;6.60;99.90;;;;;;5109974;28;20863;-65
2021/04/05 04:40:50;;;;;;;25.33;19.67;;;6.70;99.90;;;;;;5109871;28;20403;-65
2021/04/05 04:43:16;;;;;;;25.73;20.50;;;6.70;99.90;;;;;;5110015;28;20211;-65
2021/04/05 04:45:42;;;;;;;31.33;20.53;;;6.70;99.90;;;;;;5109794;28;20949;-66
2021/04/05 04:48:09;;;;;;;28.27;21.17;;;6.80;99.90;;;;;;5109959;28;20469;-66
2021/04/05 04:50:35;;;;;;;26.42;20.95;;;6.80;99.90;;;;;;5109253;28;20193;-66
2021/04/05 04:53:02;;;;;;;26.80;19.90;;;6.80;99.90;;;;;;5109840;28;20174;-66
2021/04/05 04:55:28;;;;;;;38.10;21.50;;;6.80;99.90;;;;;;5109527;28;20964;-66
2021/04/05 04:57:56;;;;;;;35.03;20.90;;;6.80;99.90;;;;;;5109582;28;20390;-66
2021/04/05 05:00:23;;;;;;;29.20;20.47;;;6.80;99.90;;;;;;5109674;28;20434;-66
2021/04/05 05:02:49;;;;;;;29.27;20.55;;;6.80;99.90;;;;;;5110050;28;20434;-66
2021/04/05 05:05:17;;;;;;;25.55;19.50;;;6.90;99.90;;;;;;5109821;28;20166;-66
2021/04/05 05:07:44;;;;;;;27.93;21.60;;;6.90;99.90;;;;;;5094551;28;20705;-66
2021/04/05 05:10:11;;;;;;;30.00;21.10;;;6.90;99.90;;;;;;5095775;28;20408;-66
2021/04/05 05:12:39;;;;;;;27.97;19.50;;;6.80;99.90;;;;;;5095923;28;20488;-66
2021/04/05 05:15:10;;;;;;;25.70;19.40;;;6.80;99.90;;;;;;5096349;28;20437;-66
2021/04/05 05:17:40;;;;;;;26.63;19.43;;;6.90;99.90;;;;;;5096212;28;20527;-66
2021/04/05 05:20:07;;;;;;;29.57;21.70;;;6.90;99.90;;;;;;5095869;28;20408;-66
2021/04/05 05:22:37;;;;;;;29.10;18.67;;;6.90;99.90;;;;;;5095713;28;20443;-66
2021/04/05 05:25:05;;;;;;;30.77;20.33;;;6.90;99.90;;;;;;5094820;28;20502;-66
2021/04/05 05:27:31;;;;;;;30.30;21.07;;;6.90;99.90;;;;;;5095924;28;20401;-66
2021/04/05 05:29:57;;;;;;;30.80;22.37;;;6.90;99.90;;;;;;5095778;28;20408;-66
2021/04/05 05:32:23;;;;;;;30.63;22.03;;;6.90;99.90;;;;;;5095743;28;20782;-66
2021/04/05 05:34:49;;;;;;;28.70;20.93;;;6.90;99.90;;;;;;5095414;28;20469;-66
2021/04/05 05:37:14;;;;;;;29.83;20.83;;;6.90;99.90;;;;;;5082513;28;20574;-66
2021/04/05 05:39:41;;;;;;;33.03;21.57;;;6.80;99.90;;;;;;5075527;28;20517;-66
2021/04/05 05:44:55;;;;;;;29.50;21.60;;;6.90;99.90;;;;;;5111352;27;21021;-65
2021/04/05 05:58:20;;;;;;;28.93;21.07;;;6.90;99.90;;;;;;5098950;27;20507;-65
2021/04/05 06:01:11;;;;;;;30.90;22.80;;;6.90;99.90;;;;;;5090748;28;20377;-65
2021/04/05 06:03:59;;;;;;;31.03;24.30;;;6.90;99.90;;;;;;5075327;28;20485;-65
2021/04/05 06:12:02;;;;;;;32.87;23.10;;;6.90;99.90;;;;;;5131553;27;20504;-65
2021/04/05 06:14:57;;;;;;;31.00;22.40;;;6.80;99.90;;;;;;5125291;27;20496;-65
2021/04/05 06:20:45;;;;;;;33.70;24.00;;;6.80;99.90;;;;;;5110972;27;20506;-65
2021/04/05 06:23:41;;;;;;;45.23;24.30;;;6.80;99.90;;;;;;5095818;28;20404;-65
2021/04/05 06:31:59;;;;;;;37.13;23.90;;;6.80;99.90;;;;;;5125795;27;20506;-65
2021/04/05 06:37:46;;;;;;;42.43;25.50;;;6.90;99.90;;;;;;5070635;28;20879;-67
2021/04/05 06:40:16;;;;;;;34.57;25.03;;;6.90;99.90;;;;;;5069485;28;20430;-67
2021/04/05 06:42:59;;;;;;;37.77;26.30;;;6.90;99.90;;;;;;5070625;28;20397;-65
2021/04/05 06:48:30;;;;;;;43.30;29.03;;;6.90;99.90;;;;;;5108630;27;20514;-65
2021/04/05 06:51:20;;;;;;;36.90;27.30;;;6.90;99.90;;;;;;5089755;28;20955;-65
2021/04/05 06:56:50;;;;;;;34.10;27.03;;;6.90;99.90;;;;;;5131680;27;20519;-66
2021/04/05 06:59:56;;;;;;;45.07;28.07;;;6.80;99.90;;;;;;5130485;28;20381;-66
2021/04/05 07:05:47;;;;;;;35.90;26.13;;;6.90;99.90;;;;;;5105951;27;20553;-65
2021/04/05 07:11:35;;;;;;;47.10;30.00;;;6.90;99.90;;;;;;5111427;27;20874;-66
2021/04/05 07:14:28;;;;;;;37.00;27.53;;;6.90;99.90;;;;;;5109793;28;20400;-66
2021/04/05 07:25:24;;;;;;;38.27;28.27;;;7.00;99.90;;;;;;5131907;27;20512;-65
2021/04/05 07:28:16;;;;;;;40.67;29.10;;;7.00;99.90;;;;;;5131398;27;20801;-65
2021/04/05 07:30:47;;;;;;;36.90;27.13;;;7.10;99.90;;;;;;5130622;28;20746;-65
2021/04/05 07:39:21;;;;;;;36.90;29.00;;;7.10;99.90;;;;;;5131803;27;20511;-65
2021/04/05 07:42:17;;;;;;;39.03;28.47;;;7.10;99.90;;;;;;5109993;28;20433;-65
2021/04/05 07:45:15;;;;;;;40.60;28.97;;;7.10;99.90;;;;;;5122857;28;20397;-65
2021/04/05 07:48:05;;;;;;;43.80;29.53;;;7.20;99.90;;;;;;5102198;28;20425;-65
2021/04/05 07:50:50;;;;;;;42.87;28.50;;;7.10;99.90;;;;;;5103581;28;20402;-65
2021/04/05 08:10:55;;;;;;;37.73;27.53;;;7.20;99.90;;;;;;5110976;27;20511;-65
2021/04/05 08:13:48;;;;;;;21.87;18.67;;;7.10;99.90;;;;;;5091477;28;20414;-65
2021/04/05 08:16:23;;;;;;;22.00;19.47;;;7.10;99.90;;;;;;5090478;28;20473;-65
2021/04/05 08:19:08;;;;;;;18.53;14.90;;;7.10;99.90;;;;;;5090790;28;20406;-65
2021/04/05 08:21:38;;;;;;;14.60;12.80;;;7.00;99.90;;;;;;5090100;28;20817;-65
2021/04/05 08:29:43;;;;;;;6.20;5.20;;;6.90;99.90;;;;;;5131521;27;20506;-65
2021/04/05 08:32:30;;;;;;;4.17;3.77;;;6.70;99.90;;;;;;5130930;28;20932;-65
2021/04/05 08:45:48;;;;;;;2.27;2.07;;;6.60;99.90;;;;;;5070345;28;20534;-65
2021/04/05 08:48:17;;;;;;;4.20;2.80;;;6.50;99.90;;;;;;5056905;28;20400;-65
2021/04/05 08:50:50;;;;;;;3.70;3.33;;;6.40;99.90;;;;;;5050259;28;20470;-65
2021/04/05 08:53:18;;;;;;;4.57;4.10;;;6.40;99.90;;;;;;5049522;28;20387;-65
2021/04/05 08:55:44;;;;;;;4.53;4.10;;;6.30;99.90;;;;;;5048943;28;20380;-65
2021/04/05 08:58:16;;;;;;;5.47;4.77;;;6.30;99.90;;;;;;5050097;28;20380;-65
2021/04/05 09:00:48;;;;;;;7.10;5.87;;;6.30;99.90;;;;;;5050216;28;20870;-65
2021/04/05 09:03:18;;;;;;;10.83;6.30;;;6.30;99.90;;;;;;5050082;28;20737;-65
2021/04/05 09:05:45;;;;;;;9.70;6.30;;;6.30;99.90;;;;;;5050757;28;20414;-65
2021/04/05 09:08:12;;;;;;;6.53;5.93;;;6.20;99.90;;;;;;5049929;28;20394;-65
2021/04/05 09:13:33;;;;;;;11.83;8.13;;;6.20;99.90;;;;;;5110930;27;20499;-66
2021/04/05 09:30:28;;;;;;;7.93;2.93;;;6.20;99.90;;;;;;5110929;27;21104;-65
2021/04/05 09:33:29;;;;;;;11.60;3.87;;;5.60;99.90;;;;;;5111188;28;20389;-65
2021/04/05 09:36:15;;;;;;;6.40;2.70;;;5.40;99.90;;;;;;5109772;28;20399;-65
2021/04/05 09:41:46;;;;;;;14.10;3.10;;;5.30;99.90;;;;;;5131470;27;21089;-65
2021/04/05 09:44:43;;;;;;;11.77;4.27;;;5.20;99.90;;;;;;5131358;28;20770;-66
2021/04/05 09:47:36;;;;;;;14.03;3.63;;;5.20;99.90;;;;;;5130647;28;20760;-65
2021/04/05 09:53:39;;;;;;;12.20;3.20;;;5.20;99.90;;;;;;5152157;27;20514;-65
2021/04/05 09:56:09;;;;;;;7.47;2.77;;;5.20;99.90;;;;;;5151069;27;20410;-65
2021/04/05 10:01:15;;;;;;;8.30;3.10;;;5.30;99.90;;;;;;5111156;27;20559;-65
2021/04/05 10:03:44;;;;;;;16.17;3.70;;;5.30;99.90;;;;;;5110929;28;20787;-65
2021/04/05 10:06:15;;;;;;;9.00;3.97;;;5.40;99.90;;;;;;5110790;28;20388;-65
2021/04/05 10:08:44;;;;;;;6.20;3.10;;;5.40;99.90;;;;;;5093051;28;20384;-65
2021/04/05 10:11:11;;;;;;;6.43;3.00;;;5.30;99.90;;;;;;5110713;28;20380;-65
2021/04/05 10:13:44;;;;;;;10.83;3.17;;;5.20;99.90;;;;;;5095195;28;20432;-65
2021/04/05 10:16:10;;;;;;;9.30;3.83;;;5.20;99.90;;;;;;5090254;28;20392;-65
2021/04/05 10:18:36;;;;;;;11.10;4.50;;;5.10;99.90;;;;;;5090202;28;20389;-65
2021/04/05 10:21:04;;;;;;;8.33;5.10;;;5.10;99.90;;;;;;5090062;28;20187;-65
2021/04/05 10:23:31;;;;;;;14.80;5.17;;;5.30;99.90;;;;;;5090138;28;20424;-65
2021/04/05 10:25:59;;;;;;;15.33;5.70;;;5.30;99.90;;;;;;5090201;28;20386;-65
2021/04/05 10:28:29;;;;;;;6.90;4.80;;;5.40;99.90;;;;;;5090209;28;20390;-65
2021/04/05 10:30:57;;;;;;;9.80;6.00;;;5.50;99.90;;;;;;5090654;28;20473;-65
2021/04/05 10:33:43;;;;;;;12.70;5.30;;;5.60;99.90;;;;;;5089823;28;20397;-65
2021/04/05 10:36:12;;;;;;;11.60;5.90;;;5.70;99.90;;;;;;5093887;28;20414;-65
2021/04/05 10:38:38;;;;;;;9.70;5.53;;;5.70;99.90;;;;;;5110317;28;20409;-65
2021/04/05 10:41:07;;;;;;;12.17;6.20;;;5.80;99.90;;;;;;5109987;28;20797;-65
2021/04/05 10:43:41;;;;;;;13.97;5.90;;;5.90;99.90;;;;;;5110289;28;20385;-65
2021/04/05 10:46:15;;;;;;;5.97;3.80;;;6.00;99.90;;;;;;5109105;28;20428;-65
2021/04/05 10:48:49;;;;;;;12.90;4.93;;;6.20;99.90;;;;;;5109976;28;20459;-65
2021/04/05 10:51:22;;;;;;;10.27;4.10;;;6.40;99.90;;;;;;5109906;28;20390;-65
2021/04/05 10:53:58;;;;;;;11.30;4.10;;;6.60;99.90;;;;;;5110073;28;20397;-65
2021/04/05 10:56:25;;;;;;;7.20;3.80;;;6.80;99.90;;;;;;5109903;28;20840;-65
2021/04/05 10:59:02;;;;;;;8.20;3.97;;;6.70;99.90;;;;;;5109677;28;20446;-65
2021/04/05 11:01:31;;;;;;;13.20;4.10;;;6.80;99.90;;;;;;5109757;28;20384;-65
2021/04/05 11:03:58;;;;;;;6.70;3.87;;;6.80;99.90;;;;;;5109108;28;20491;-65
2021/04/05 11:06:27;;;;;;;8.40;4.20;;;6.80;99.90;;;;;;5109581;28;20394;-65
2021/04/05 11:08:54;;;;;;;3.93;2.10;;;6.60;99.90;;;;;;5109623;28;20417;-65
2021/04/05 11:11:29;;;;;;;5.33;1.30;;;6.50;99.90;;;;;;5103025;28;20394;-65
2021/04/05 11:13:59;;;;;;;1.97;1.00;;;6.30;99.90;;;;;;5095989;28;20381;-65
2021/04/05 11:16:27;;;;;;;2.70;1.63;;;6.20;99.90;;;;;;5095893;28;20399;-65
2021/04/05 11:18:55;;;;;;;2.53;2.33;;;6.00;99.90;;;;;;5095837;28;20411;-65
2021/04/05 11:21:32;;;;;;;4.50;3.53;;;5.90;99.90;;;;;;5095076;28;20869;-65
2021/04/05 11:23:58;;;;;;;2.10;1.90;;;5.80;99.90;;;;;;5095780;28;20832;-65
2021/04/05 11:26:32;;;;;;;2.13;1.93;;;5.80;99.90;;;;;;5094620;28;20417;-65
2021/04/05 11:29:03;;;;;;;1.73;1.50;;;5.80;99.90;;;;;;5095644;28;20392;-65
2021/04/05 11:31:36;;;;;;;2.00;1.50;;;5.90;99.90;;;;;;5095708;28;20389;-65
2021/04/05 11:34:03;;;;;;;3.00;1.97;;;6.00;99.90;;;;;;5095823;28;20398;-65
2021/04/05 11:36:47;;;;;;;2.47;2.00;;;6.20;99.90;;;;;;5089041;28;20413;-65
2021/04/05 11:39:16;;;;;;;1.90;1.50;;;6.30;99.90;;;;;;5094510;28;20542;-65
2021/04/05 11:41:45;;;;;;;1.67;1.27;;;6.50;99.90;;;;;;5095441;28;20397;-65
2021/04/05 11:44:13;;;;;;;3.50;1.50;;;6.70;99.90;;;;;;5095457;28;20745;-65
2021/04/05 11:46:41;;;;;;;3.77;1.83;;;6.90;99.90;;;;;;5095383;28;20426;-65
2021/04/05 11:49:11;;;;;;;3.00;1.87;;;6.90;99.90;;;;;;5095391;28;20959;-65
2021/04/05 11:54:43;;;;;;;2.80;2.43;;;7.10;99.90;;;;;;5126655;27;20914;-65
2021/04/05 11:57:10;;;;;;;3.27;1.90;;;7.00;99.90;;;;;;5110009;28;20451;-65
2021/04/05 11:59:44;;;;;;;6.20;2.07;;;7.00;99.90;;;;;;5110738;28;20422;-65
2021/04/05 12:02:21;;;;;;;2.07;1.70;;;7.10;99.90;;;;;;5110674;28;20395;-65
2021/04/05 12:07:32;;;;;;;2.20;2.00;;;7.20;99.90;;;;;;5111015;27;20498;-65
2021/04/05 12:10:04;;;;;;;4.50;1.90;;;7.20;99.90;;;;;;5110932;28;20487;-65
2021/04/05 12:12:36;;;;;;;2.87;1.80;;;7.30;99.90;;;;;;5094701;28;20408;-65
2021/04/05 12:15:03;;;;;;;3.77;2.37;;;7.40;99.90;;;;;;5090421;28;20393;-65
2021/04/05 12:17:31;;;;;;;5.10;3.00;;;7.30;99.90;;;;;;5090380;28;20384;-65
2021/04/05 12:19:59;;;;;;;3.67;3.00;;;7.10;99.90;;;;;;5090216;28;20397;-65
2021/04/05 12:22:30;;;;;;;8.10;3.00;;;6.90;99.90;;;;;;5090390;28;20495;-65
2021/04/05 12:24:59;;;;;;;4.67;2.87;;;6.60;99.90;;;;;;5090484;28;20435;-65
2021/04/05 12:27:31;;;;;;;4.30;2.50;;;6.20;99.90;;;;;;5090145;28;20474;-65
2021/04/05 12:30:00;;;;;;;5.60;2.30;;;5.70;99.90;;;;;;5090931;28;20466;-65
2021/04/05 12:32:26;;;;;;;6.90;2.87;;;5.30;99.90;;;;;;5090248;28;20477;-65
2021/04/05 12:34:57;;;;;;;8.10;2.10;;;5.10;99.90;;;;;;5090505;28;20487;-64
2021/04/05 12:37:25;;;;;;;4.13;2.73;;;4.90;99.90;;;;;;5104157;28;20425;-66
2021/04/05 12:39:53;;;;;;;4.83;2.60;;;4.70;99.90;;;;;;5110349;28;20870;-65
2021/04/05 12:42:20;;;;;;;7.03;2.40;;;4.70;99.90;;;;;;5109087;28;20434;-65
2021/04/05 12:44:52;;;;;;;4.70;2.57;;;4.80;99.90;;;;;;5108444;28;20419;-65
2021/04/05 12:47:18;;;;;;;6.43;2.37;;;4.90;99.90;;;;;;5109898;28;20458;-65
2021/04/05 12:49:46;;;;;;;4.83;2.67;;;5.00;99.90;;;;;;5110120;28;20391;-65
2021/04/05 12:52:15;;;;;;;5.50;2.80;;;5.20;99.90;;;;;;5110462;28;20258;-65
2021/04/05 12:54:45;;;;;;;4.10;2.43;;;5.30;99.90;;;;;;5109078;28;20390;-65
2021/04/05 12:57:12;;;;;;;8.00;2.33;;;5.50;99.90;;;;;;5109949;28;20395;-65
2021/04/05 12:59:38;;;;;;;5.67;2.47;;;5.50;99.90;;;;;;5109908;28;20401;-64
2021/04/05 13:05:10;;;;;;;3.37;1.67;;;5.40;99.90;;;;;;5131575;27;20494;-65
2021/04/05 13:08:00;;;;;;;8.20;2.10;;;5.30;99.90;;;;;;5131411;28;20421;-65
2021/04/05 13:10:28;;;;;;;9.03;2.20;;;5.10;99.90;;;;;;5130560;28;20400;-65
2021/04/05 13:12:57;;;;;;;4.93;1.50;;;4.90;99.90;;;;;;5131314;28;20395;-66
2021/04/05 13:15:30;;;;;;;2.07;1.17;;;4.70;99.90;;;;;;5131197;28;20383;-66
2021/04/05 13:18:04;;;;;;;5.10;1.47;;;4.60;99.90;;;;;;5131197;28;20899;-66
2021/04/05 13:20:34;;;;;;;3.63;1.80;;;4.60;99.90;;;;;;5116478;28;20403;-66
2021/04/05 13:23:04;;;;;;;5.53;2.27;;;4.70;99.90;;;;;;5109827;28;20965;-66
2021/04/05 13:25:36;;;;;;;5.00;1.70;;;4.90;99.90;;;;;;5110445;28;20412;-66
2021/04/05 13:28:03;;;;;;;4.43;2.00;;;5.00;99.90;;;;;;5110599;28;20412;-66
2021/04/05 13:30:33;;;;;;;5.60;1.60;;;4.90;99.90;;;;;;5109190;28;20425;-66
2021/04/05 13:33:01;;;;;;;7.27;1.70;;;4.90;99.90;;;;;;5110623;28;20398;-65
2021/04/05 13:35:29;;;;;;;4.80;2.07;;;4.90;99.90;;;;;;5110738;28;20392;-66
2021/04/05 13:37:57;;;;;;;6.40;1.70;;;4.90;99.90;;;;;;5109715;28;20414;-66
2021/04/05 13:40:26;;;;;;;4.73;2.10;;;4.90;99.90;;;;;;5110349;28;20429;-66
2021/04/05 13:42:56;;;;;;;3.53;1.70;;;4.80;99.90;;;;;;5110157;28;20525;-66
2021/04/05 13:45:33;;;;;;;12.40;2.10;;;4.70;99.90;;;;;;5110114;28;20384;-66
2021/04/05 13:48:05;;;;;;;5.17;2.30;;;4.60;99.90;;;;;;5109103;28;20446;-66
2021/04/05 13:50:33;;;;;;;5.43;2.23;;;4.60;99.90;;;;;;5110245;28;20393;-66
2021/04/05 13:53:00;;;;;;;3.87;2.03;;;4.60;99.90;;;;;;5110798;28;20399;-66
2021/04/05 13:55:31;;;;;;;7.70;2.07;;;4.50;99.90;;;;;;5110032;28;20953;-65
2021/04/05 13:58:07;;;;;;;4.90;2.50;;;4.50;99.90;;;;;;5109963;28;20477;-66
2021/04/05 14:00:33;;;;;;;5.23;2.73;;;4.60;99.90;;;;;;5110019;28;20909;-66
2021/04/05 14:03:10;;;;;;;6.93;1.90;;;4.70;99.90;;;;;;5109944;28;20541;-65
2021/04/05 14:05:40;;;;;;;4.40;2.20;;;4.80;99.90;;;;;;5109877;28;20790;-66
2021/04/05 14:08:11;;;;;;;5.60;2.10;;;5.00;99.90;;;;;;5109681;28;20402;-66
2021/04/05 14:10:39;;;;;;;3.70;2.27;;;5.20;99.90;;;;;;5110155;28;20419;-66
2021/04/05 14:13:10;;;;;;;5.87;2.67;;;5.40;99.90;;;;;;5109703;28;20406;-66
2021/04/05 14:15:37;;;;;;;7.30;2.53;;;5.60;99.90;;;;;;5099685;28;20482;-66
2021/04/05 14:20:42;;;;;;;5.67;3.23;;;5.70;99.90;;;;;;5110936;27;20513;-65
2021/04/05 14:23:12;;;;;;;5.40;1.60;;;5.80;99.90;;;;;;5110923;28;20385;-64
2021/04/05 14:25:49;;;;;;;6.60;2.90;;;5.80;99.90;;;;;;5110754;28;20479;-66
2021/04/05 14:28:35;;;;;;;4.83;2.30;;;5.60;99.90;;;;;;5098057;28;20404;-67
2021/04/05 14:31:29;;;;;;;6.60;3.30;;;5.50;99.90;;;;;;5090420;28;20885;-65
2021/04/05 14:33:59;;;;;;;5.90;3.63;;;5.40;99.90;;;;;;5089477;28;20443;-66
2021/04/05 14:36:29;;;;;;;4.80;3.17;;;5.30;99.90;;;;;;5096385;28;20403;-66
2021/04/05 14:39:01;;;;;;;4.20;2.43;;;5.30;99.90;;;;;;5110409;28;20446;-66
2021/04/05 14:41:34;;;;;;;5.00;2.43;;;5.30;99.90;;;;;;5110644;28;20460;-66
2021/04/05 14:44:06;;;;;;;4.10;2.27;;;5.30;99.90;;;;;;5109767;28;20862;-66
2021/04/05 14:46:38;;;;;;;3.60;2.80;;;5.40;99.90;;;;;;5110395;28;20423;-66
2021/04/05 14:49:05;;;;;;;5.30;1.80;;;5.60;99.90;;;;;;5110482;28;20483;-66
2021/04/05 14:51:31;;;;;;;2.20;1.30;;;5.70;99.90;;;;;;5110390;28;20861;-66
2021/04/05 14:54:01;;;;;;;3.70;1.77;;;5.70;99.90;;;;;;5110415;28;20753;-66
2021/04/05 14:56:28;;;;;;;4.30;2.10;;;5.60;99.90;;;;;;5110701;28;20392;-66
2021/04/05 14:58:55;;;;;;;2.80;1.93;;;5.50;99.90;;;;;;5110343;28;20485;-66
2021/04/05 15:01:22;;;;;;;4.90;1.60;;;5.30;99.90;;;;;;5109292;28;20833;-66
2021/04/05 15:04:06;;;;;;;3.80;1.83;;;5.10;99.90;;;;;;5110238;28;20419;-66
2021/04/05 15:06:39;;;;;;;5.33;1.60;;;5.00;99.90;;;;;;5110382;28;20389;-66
2021/04/05 15:09:06;;;;;;;4.80;1.93;;;5.00;99.90;;;;;;5110369;28;20400;-66
2021/04/05 15:11:55;;;;;;;4.90;2.37;;;5.00;99.90;;;;;;5110054;27;20409;-66
2021/04/05 15:14:29;;;;;;;5.40;1.97;;;5.10;99.90;;;;;;5109972;28;20399;-66
2021/04/05 15:16:59;;;;;;;8.37;2.67;;;5.10;99.90;;;;;;5109978;28;20483;-66
2021/04/05 15:19:27;;;;;;;7.20;2.40;;;5.10;99.90;;;;;;5108717;28;20462;-66
2021/04/05 15:22:00;;;;;;;4.40;2.67;;;5.10;99.90;;;;;;5109798;28;20873;-66
2021/04/05 15:24:29;;;;;;;6.07;2.10;;;5.20;99.90;;;;;;5109981;28;20437;-66
2021/04/05 15:27:02;;;;;;;8.47;2.70;;;5.20;99.90;;;;;;5109650;28;20384;-66
2021/04/05 15:29:28;;;;;;;7.30;2.73;;;5.10;99.90;;;;;;5109403;28;20408;-66